Time;durP1;ratioP1;P1;durP2;ratioP2;P2;SDS_P1;SDS_P2;PMS_P1;PMS_P2;Temp;Humidity;BMP_temperature;BMP_pressure;BME280_temperature;BME280_humidity;BME280_pressure;Samples;Min_cycle;Max_cycle;Signal;HPM_P1;HPM_P2
2022/01/28 00:05:21;;;;;;;;;121.50;113.00;;;;;;;;5095618;28;8778;-72
2022/01/28 00:07:47;;;;;;;;;127.60;120.80;;;;;;;;5095468;28;8798;-72
2022/01/28 00:10:13;;;;;;;;;130.60;126.00;;;;;;;;5095514;28;8782;-72
2022/01/28 00:12:51;;;;;;;;;122.00;118.25;;;;;;;;5094116;28;8889;-72
2022/01/28 00:15:28;;;;;;;;;118.00;112.80;;;;;;;;5094294;28;9108;-72
2022/01/28 00:39:10;;;;;;;;;118.60;113.20;;;;;;;;5095503;28;8814;-72
2022/01/28 00:41:36;;;;;;;;;122.00;109.50;;;;;;;;5095038;28;8831;-72
2022/01/28 00:44:01;;;;;;;;;143.50;129.75;;;;;;;;5087120;28;8813;-72
2022/01/28 00:46:26;;;;;;;;;139.50;128.25;;;;;;;;5095305;28;8834;-72
2022/01/28 00:48:52;;;;;;;;;130.00;121.67;;;;;;;;5095400;28;8841;-72
2022/01/28 00:51:17;;;;;;;;;135.75;128.00;;;;;;;;5081263;28;8840;-72
2022/01/28 00:53:42;;;;;;;;;125.25;117.75;;;;;;;;5095413;28;8810;-72
2022/01/28 00:56:07;;;;;;;;;103.25;95.25;;;;;;;;5095034;28;8868;-72
2022/01/28 00:58:33;;;;;;;;;127.25;119.50;;;;;;;;5094891;28;11699;-72
2022/01/28 01:00:58;;;;;;;;;133.33;125.33;;;;;;;;5089069;28;8816;-72
2022/01/28 01:03:23;;;;;;;;;119.67;112.67;;;;;;;;5086293;28;8830;-72
2022/01/28 01:05:49;;;;;;;;;113.00;106.25;;;;;;;;5094924;28;8805;-72
2022/01/28 01:08:14;;;;;;;;;112.25;102.50;;;;;;;;5093501;28;11334;-72
2022/01/28 01:10:39;;;;;;;;;113.00;108.20;;;;;;;;5094737;28;8885;-72
2022/01/28 01:13:05;;;;;;;;;120.20;117.80;;;;;;;;5095097;28;8814;-72
2022/01/28 01:15:35;;;;;;;;;107.40;102.40;;;;;;;;5094932;28;8842;-72
2022/01/28 01:18:12;;;;;;;;;113.20;104.40;;;;;;;;5093552;28;8918;-72
2022/01/28 01:23:21;;;;;;;;;117.60;112.80;;;;;;;;5094669;28;11651;-72
2022/01/28 01:25:54;;;;;;;;;114.20;108.60;;;;;;;;5094699;28;8742;-72
2022/01/28 01:28:22;;;;;;;;;115.80;106.00;;;;;;;;5089960;28;8907;-72
2022/01/28 01:30:48;;;;;;;;;113.40;108.80;;;;;;;;5094798;28;8809;-72
2022/01/28 01:33:16;;;;;;;;;131.20;122.80;;;;;;;;5094679;28;8801;-72
2022/01/28 01:35:41;;;;;;;;;118.00;109.40;;;;;;;;5094734;28;8872;-72
2022/01/28 01:38:08;;;;;;;;;111.20;103.20;;;;;;;;5094477;28;10520;-72
2022/01/28 01:40:42;;;;;;;;;107.00;100.60;;;;;;;;5094590;28;8770;-72
2022/01/28 01:43:30;;;;;;;;;126.40;120.00;;;;;;;;5091593;28;8786;-72
2022/01/28 01:53:51;;;;;;;;;117.60;111.60;;;;;;;;5082917;28;8782;-72
2022/01/28 01:56:17;;;;;;;;;114.60;107.60;;;;;;;;5094101;28;9723;-72
2022/01/28 01:58:43;;;;;;;;;105.00;98.33;;;;;;;;5092993;28;8790;-72
2022/01/28 02:01:08;;;;;;;;;106.00;103.00;;;;;;;;5094063;28;12389;-72
2022/01/28 02:03:33;;;;;;;;;118.00;111.75;;;;;;;;5093015;28;8813;-72
2022/01/28 02:06:00;;;;;;;;;123.20;109.60;;;;;;;;5092711;28;11380;-72
2022/01/28 02:08:30;;;;;;;;;118.00;111.60;;;;;;;;5094479;28;8797;-72
2022/01/28 02:10:57;;;;;;;;;130.00;119.20;;;;;;;;5093958;28;8777;-72
2022/01/28 02:13:23;;;;;;;;;112.00;106.50;;;;;;;;5095000;28;8809;-72
2022/01/28 02:15:49;;;;;;;;;114.40;104.80;;;;;;;;5096249;28;8794;-72
2022/01/28 02:18:14;;;;;;;;;123.25;115.75;;;;;;;;5097580;28;8942;-72
2022/01/28 02:20:42;;;;;;;;;106.25;100.75;;;;;;;;5097456;28;10244;-72
2022/01/28 02:23:08;;;;;;;;;128.60;117.20;;;;;;;;5097651;28;11644;-72
2022/01/28 02:25:34;;;;;;;;;116.25;110.25;;;;;;;;5097151;28;11534;-72
2022/01/28 02:28:06;;;;;;;;;120.75;111.75;;;;;;;;5097248;28;8821;-72
2022/01/28 02:30:31;;;;;;;;;126.83;119.67;;;;;;;;5097358;28;8775;-72
2022/01/28 02:33:08;;;;;;;;;122.40;113.60;;;;;;;;5097505;28;8814;-72
2022/01/28 02:35:33;;;;;;;;;143.50;131.00;;;;;;;;5083991;28;8994;-72
2022/01/28 02:37:58;;;;;;;;;130.50;124.75;;;;;;;;5097294;28;8814;-72
2022/01/28 02:40:24;;;;;;;;;127.00;122.50;;;;;;;;5097367;28;8836;-72
2022/01/28 02:43:00;;;;;;;;;121.80;113.80;;;;;;;;5091136;28;8808;-72
2022/01/28 02:45:34;;;;;;;;;123.20;118.80;;;;;;;;5085934;28;8814;-72
2022/01/28 02:48:03;;;;;;;;;111.60;103.60;;;;;;;;5097021;28;8802;-72
2022/01/28 02:50:33;;;;;;;;;129.17;123.83;;;;;;;;5089344;28;8801;-72
2022/01/28 02:53:05;;;;;;;;;117.20;113.60;;;;;;;;5091608;28;9807;-72
2022/01/28 02:55:36;;;;;;;;;122.00;118.60;;;;;;;;5097045;28;8789;-72
2022/01/28 02:58:17;;;;;;;;;108.20;98.00;;;;;;;;5097009;28;8851;-72
2022/01/28 03:00:42;;;;;;;;;113.20;108.60;;;;;;;;5095109;28;8809;-72
2022/01/28 03:03:08;;;;;;;;;121.25;117.50;;;;;;;;5095082;28;8865;-72
2022/01/28 03:05:34;;;;;;;;;110.00;104.75;;;;;;;;5095450;28;8818;-72
2022/01/28 03:08:03;;;;;;;;;100.50;95.75;;;;;;;;5083625;28;11334;-72
2022/01/28 03:10:42;;;;;;;;;117.40;111.00;;;;;;;;5096451;28;8821;-72
2022/01/28 03:15:34;;;;;;;;;122.60;114.20;;;;;;;;5096739;28;8802;-72
2022/01/28 03:18:11;;;;;;;;;116.67;113.50;;;;;;;;5096862;28;8778;-72
2022/01/28 03:23:05;;;;;;;;;117.00;109.60;;;;;;;;5096748;28;8912;-72
2022/01/28 03:25:30;;;;;;;;;110.40;99.40;;;;;;;;5094836;28;11599;-71
2022/01/28 03:27:58;;;;;;;;;115.25;108.25;;;;;;;;5096454;28;8864;-71
2022/01/28 03:30:24;;;;;;;;;139.80;135.60;;;;;;;;5096232;28;9253;-72
2022/01/28 03:32:49;;;;;;;;;130.20;125.60;;;;;;;;5096524;28;9554;-72
2022/01/28 03:35:16;;;;;;;;;108.00;98.40;;;;;;;;5094767;28;8876;-72
2022/01/28 03:37:42;;;;;;;;;119.00;111.60;;;;;;;;5096644;28;8918;-72
2022/01/28 03:40:08;;;;;;;;;113.33;107.67;;;;;;;;5096012;28;8832;-72
2022/01/28 03:42:37;;;;;;;;;142.60;132.80;;;;;;;;5092492;28;8859;-72
2022/01/28 03:45:06;;;;;;;;;117.80;110.00;;;;;;;;5095960;28;8802;-72
2022/01/28 03:47:31;;;;;;;;;138.25;132.75;;;;;;;;5096157;28;8814;-72
2022/01/28 03:49:57;;;;;;;;;122.50;119.00;;;;;;;;5091527;28;8792;-72
2022/01/28 03:52:22;;;;;;;;;128.75;122.25;;;;;;;;5085666;28;8801;-72
2022/01/28 03:54:48;;;;;;;;;130.20;125.20;;;;;;;;5095957;28;8837;-72
2022/01/28 03:57:13;;;;;;;;;118.25;113.75;;;;;;;;5095960;28;8798;-72
2022/01/28 03:59:38;;;;;;;;;121.00;113.67;;;;;;;;5095801;28;11102;-72
2022/01/28 04:02:05;;;;;;;;;129.00;123.50;;;;;;;;5096165;28;8894;-72
2022/01/28 04:12:28;;;;;;;;;116.00;110.00;;;;;;;;5095611;28;8778;-73
2022/01/28 04:17:37;;;;;;;;;119.20;110.20;;;;;;;;5095653;28;8798;-72
2022/01/28 04:20:02;;;;;;;;;137.67;129.67;;;;;;;;5095592;28;8828;-72
2022/01/28 04:22:28;;;;;;;;;123.60;120.60;;;;;;;;5095587;28;8798;-72
2022/01/28 04:24:54;;;;;;;;;124.25;120.75;;;;;;;;5095357;28;8886;-72
2022/01/28 04:27:19;;;;;;;;;126.00;121.40;;;;;;;;5095345;28;8809;-72
2022/01/28 04:29:44;;;;;;;;;126.25;123.25;;;;;;;;5095432;28;8837;-72
2022/01/28 04:32:10;;;;;;;;;107.00;101.60;;;;;;;;5095079;28;8818;-72
2022/01/28 04:34:35;;;;;;;;;124.00;115.00;;;;;;;;5095350;28;9601;-72
2022/01/28 04:37:13;;;;;;;;;121.00;109.00;;;;;;;;5094377;28;8813;-72
2022/01/28 04:39:47;;;;;;;;;108.60;107.40;;;;;;;;5095047;28;8798;-72
2022/01/28 04:43:04;;;;;;;;;140.20;131.40;;;;;;;;5095208;28;8890;-72
2022/01/28 04:45:07;;;;;;;;;117.60;108.80;;;;;;;;5094422;28;8798;-72
2022/01/28 04:47:42;;;;;;;;;129.80;123.20;;;;;;;;5095399;28;8826;-72
2022/01/28 04:50:33;;;;;;;;;133.20;127.40;;;;;;;;5083107;28;9700;-72
2022/01/28 04:53:15;;;;;;;;;118.00;113.00;;;;;;;;5095225;28;8813;-71
2022/01/28 05:09:30;;;;;;;;;121.20;117.80;;;;;;;;5094842;28;8826;-72
2022/01/28 05:27:55;;;;;;;;;119.40;113.60;;;;;;;;5081396;28;8814;-72
2022/01/28 05:30:20;;;;;;;;;112.75;106.75;;;;;;;;5094579;28;12359;-72
2022/01/28 05:32:45;;;;;;;;;137.50;127.50;;;;;;;;5093099;28;8861;-72
2022/01/28 05:35:10;;;;;;;;;127.60;123.00;;;;;;;;5094821;28;8809;-72
2022/01/28 05:37:36;;;;;;;;;126.75;121.25;;;;;;;;5094606;28;8822;-72
2022/01/28 05:40:01;;;;;;;;;114.75;108.00;;;;;;;;5094433;28;8826;-72
2022/01/28 05:42:26;;;;;;;;;117.75;114.75;;;;;;;;5093140;28;10519;-71
2022/01/28 05:44:53;;;;;;;;;145.25;135.00;;;;;;;;5094579;28;8806;-72
2022/01/28 05:47:18;;;;;;;;;142.60;133.20;;;;;;;;5093118;28;9350;-72
2022/01/28 05:49:44;;;;;;;;;136.75;124.00;;;;;;;;5097121;28;8810;-71
2022/01/28 05:52:10;;;;;;;;;128.00;120.75;;;;;;;;5097990;28;8778;-71
2022/01/28 05:54:35;;;;;;;;;122.80;119.80;;;;;;;;5098140;28;8894;-71
2022/01/28 05:57:00;;;;;;;;;133.25;127.50;;;;;;;;5097777;28;8875;-72
2022/01/28 05:59:26;;;;;;;;;143.75;138.50;;;;;;;;5096658;28;9607;-71
2022/01/28 06:01:51;;;;;;;;;117.75;112.00;;;;;;;;5098031;28;8821;-72
2022/01/28 06:04:16;;;;;;;;;122.25;110.25;;;;;;;;5098190;28;11721;-72
2022/01/28 06:06:42;;;;;;;;;119.25;108.25;;;;;;;;5095639;28;8844;-72
2022/01/28 06:09:07;;;;;;;;;117.00;111.60;;;;;;;;5096898;28;9447;-72
2022/01/28 06:11:33;;;;;;;;;120.50;111.25;;;;;;;;5096308;28;8918;-72
2022/01/28 06:13:58;;;;;;;;;133.50;125.25;;;;;;;;5095596;28;8813;-71
2022/01/28 06:16:23;;;;;;;;;124.75;115.00;;;;;;;;5097490;28;8891;-72
2022/01/28 06:18:49;;;;;;;;;117.50;105.00;;;;;;;;5087422;28;8824;-71
2022/01/28 06:21:14;;;;;;;;;93.25;79.75;;;;;;;;5091990;28;11628;-71
2022/01/28 06:23:40;;;;;;;;;113.75;108.25;;;;;;;;5095930;28;8915;-71
2022/01/28 06:26:05;;;;;;;;;111.25;110.00;;;;;;;;5097237;28;8809;-71
2022/01/28 06:28:31;;;;;;;;;121.25;110.50;;;;;;;;5096671;28;9597;-72
2022/01/28 06:30:56;;;;;;;;;106.60;98.60;;;;;;;;5097447;28;8810;-72
2022/01/28 06:33:21;;;;;;;;;108.00;102.75;;;;;;;;5097411;28;8856;-72
2022/01/28 06:35:47;;;;;;;;;117.00;108.75;;;;;;;;5095871;28;8938;-72
2022/01/28 06:38:13;;;;;;;;;112.00;105.60;;;;;;;;5093818;28;8830;-71
2022/01/28 06:40:39;;;;;;;;;97.75;86.75;;;;;;;;5096565;28;8801;-71
2022/01/28 06:43:07;;;;;;;;;106.25;102.25;;;;;;;;5095987;28;8813;-72
2022/01/28 06:45:32;;;;;;;;;118.80;106.20;;;;;;;;5097106;28;8824;-71
2022/01/28 06:47:57;;;;;;;;;112.50;100.75;;;;;;;;5095476;28;8826;-72
2022/01/28 06:50:23;;;;;;;;;114.33;109.33;;;;;;;;5096768;28;8809;-71
2022/01/28 06:52:48;;;;;;;;;120.75;115.25;;;;;;;;5091914;28;8826;-71
2022/01/28 06:55:17;;;;;;;;;106.25;98.25;;;;;;;;5093880;28;11644;-71
2022/01/28 06:57:43;;;;;;;;;111.67;104.00;;;;;;;;5092440;28;8836;-71
2022/01/28 07:00:09;;;;;;;;;109.60;105.20;;;;;;;;5090003;28;8817;-71
2022/01/28 07:02:35;;;;;;;;;104.20;99.00;;;;;;;;5094399;28;8848;-71
2022/01/28 07:05:00;;;;;;;;;105.20;97.60;;;;;;;;5096302;28;8797;-72
2022/01/28 07:07:26;;;;;;;;;110.00;102.00;;;;;;;;5096570;28;8837;-71
2022/01/28 07:09:52;;;;;;;;;111.60;108.00;;;;;;;;5095250;28;8852;-69
2022/01/28 07:12:17;;;;;;;;;98.60;91.20;;;;;;;;5095320;28;8810;-71
2022/01/28 07:14:43;;;;;;;;;95.00;83.25;;;;;;;;5096313;28;8960;-71
2022/01/28 07:17:08;;;;;;;;;103.00;96.75;;;;;;;;5096382;28;11514;-71
2022/01/28 07:19:33;;;;;;;;;98.00;90.25;;;;;;;;5096631;28;8844;-71
2022/01/28 07:21:59;;;;;;;;;113.75;106.25;;;;;;;;5094948;28;8805;-71
2022/01/28 07:24:24;;;;;;;;;119.00;111.25;;;;;;;;5096683;28;8794;-71
2022/01/28 07:26:51;;;;;;;;;108.00;100.50;;;;;;;;5096285;28;8793;-71
2022/01/28 07:29:16;;;;;;;;;101.75;96.00;;;;;;;;5096538;28;8820;-71
2022/01/28 07:31:42;;;;;;;;;108.75;102.75;;;;;;;;5096473;28;8805;-71
2022/01/28 07:34:08;;;;;;;;;98.20;91.60;;;;;;;;5096487;28;8816;-71
2022/01/28 07:36:34;;;;;;;;;109.75;101.75;;;;;;;;5094847;28;8837;-71
2022/01/28 07:38:59;;;;;;;;;112.80;104.40;;;;;;;;5096428;28;8802;-70
2022/01/28 07:41:26;;;;;;;;;109.75;104.25;;;;;;;;5096068;28;8798;-70
2022/01/28 07:43:52;;;;;;;;;97.75;83.50;;;;;;;;5089725;28;8958;-70
2022/01/28 07:46:17;;;;;;;;;99.00;93.75;;;;;;;;5094873;28;9614;-71
2022/01/28 07:48:42;;;;;;;;;97.75;86.25;;;;;;;;5096428;28;8899;-71
2022/01/28 07:51:08;;;;;;;;;112.50;105.75;;;;;;;;5081412;28;8840;-71
2022/01/28 07:53:33;;;;;;;;;95.25;82.50;;;;;;;;5095531;28;8809;-71
2022/01/28 07:55:58;;;;;;;;;99.33;87.33;;;;;;;;5095879;28;8980;-71
2022/01/28 07:58:24;;;;;;;;;102.75;100.25;;;;;;;;5095866;28;8874;-71
2022/01/28 08:00:49;;;;;;;;;111.40;107.00;;;;;;;;5095983;28;11570;-72
2022/01/28 08:03:14;;;;;;;;;116.25;103.50;;;;;;;;5095086;28;9606;-71
2022/01/28 08:05:40;;;;;;;;;115.00;106.75;;;;;;;;5095729;28;8805;-71
2022/01/28 08:08:08;;;;;;;;;114.25;109.25;;;;;;;;5094148;28;8825;-71
2022/01/28 08:10:33;;;;;;;;;121.60;114.80;;;;;;;;5093343;28;9962;-71
2022/01/28 08:13:01;;;;;;;;;111.80;107.20;;;;;;;;5094370;28;8957;-72
2022/01/28 08:15:26;;;;;;;;;115.20;108.80;;;;;;;;5094927;28;8819;-71
2022/01/28 08:17:51;;;;;;;;;120.80;116.80;;;;;;;;5089554;28;8813;-72
2022/01/28 08:20:17;;;;;;;;;113.75;110.00;;;;;;;;5091526;28;8993;-71
2022/01/28 08:22:43;;;;;;;;;110.75;103.00;;;;;;;;5092914;28;10697;-72
2022/01/28 08:25:08;;;;;;;;;125.00;113.40;;;;;;;;5090821;28;8802;-73
2022/01/28 08:27:34;;;;;;;;;105.40;99.40;;;;;;;;5093454;28;9015;-73
2022/01/28 08:29:59;;;;;;;;;117.00;112.25;;;;;;;;5090808;28;9508;-73
2022/01/28 08:32:25;;;;;;;;;127.00;121.75;;;;;;;;5084630;28;8832;-73
2022/01/28 08:34:50;;;;;;;;;106.60;99.00;;;;;;;;5087876;28;8860;-74
2022/01/28 08:37:15;;;;;;;;;137.67;130.00;;;;;;;;5094824;28;8892;-73
2022/01/28 08:39:41;;;;;;;;;121.00;115.67;;;;;;;;5094787;28;9561;-73
2022/01/28 08:42:06;;;;;;;;;118.75;115.75;;;;;;;;5092919;28;8837;-73
2022/01/28 08:44:32;;;;;;;;;114.20;107.20;;;;;;;;5092121;28;11579;-73
2022/01/28 08:46:57;;;;;;;;;133.00;120.50;;;;;;;;5073329;28;9541;-74
2022/01/28 08:49:22;;;;;;;;;107.00;93.00;;;;;;;;5091811;28;8887;-74
2022/01/28 08:51:48;;;;;;;;;115.40;108.60;;;;;;;;5094170;28;8940;-73
2022/01/28 08:54:14;;;;;;;;;123.40;113.60;;;;;;;;5094670;28;8802;-73
2022/01/28 08:56:39;;;;;;;;;109.00;99.80;;;;;;;;5093784;28;8802;-74
2022/01/28 08:59:05;;;;;;;;;129.50;122.75;;;;;;;;5091684;28;8822;-74
2022/01/28 09:01:30;;;;;;;;;128.40;123.40;;;;;;;;5092897;28;8864;-74
2022/01/28 09:03:56;;;;;;;;;112.20;108.80;;;;;;;;5090714;28;8825;-74
2022/01/28 09:06:21;;;;;;;;;137.25;127.25;;;;;;;;5091715;28;8861;-73
2022/01/28 09:08:48;;;;;;;;;112.40;101.20;;;;;;;;5087182;28;8821;-73
2022/01/28 09:13:48;;;;;;;;;120.80;111.20;;;;;;;;5089120;28;8832;-73
2022/01/28 09:16:13;;;;;;;;;118.00;111.25;;;;;;;;5094526;28;8916;-73
2022/01/28 09:18:39;;;;;;;;;118.75;112.50;;;;;;;;5093609;28;8810;-73
2022/01/28 09:21:04;;;;;;;;;113.00;107.20;;;;;;;;5083886;28;8813;-73
2022/01/28 09:23:30;;;;;;;;;126.50;117.75;;;;;;;;5093975;28;8801;-73
2022/01/28 09:25:55;;;;;;;;;124.20;116.40;;;;;;;;5096150;28;8933;-73
2022/01/28 09:28:20;;;;;;;;;116.00;103.75;;;;;;;;5097537;28;8814;-74
2022/01/28 09:30:46;;;;;;;;;104.80;100.20;;;;;;;;5097945;28;8794;-74
2022/01/28 09:33:11;;;;;;;;;114.40;107.40;;;;;;;;5097830;28;8801;-73
2022/01/28 09:35:37;;;;;;;;;107.25;104.00;;;;;;;;5097120;28;8840;-73
2022/01/28 09:38:03;;;;;;;;;127.00;121.00;;;;;;;;5097392;28;8797;-74
2022/01/28 09:40:28;;;;;;;;;139.60;129.60;;;;;;;;5096955;28;8802;-74
2022/01/28 09:42:54;;;;;;;;;131.25;124.75;;;;;;;;5097694;28;9686;-73
2022/01/28 09:45:22;;;;;;;;;149.40;142.60;;;;;;;;5097070;28;11612;-74
2022/01/28 09:47:47;;;;;;;;;124.40;121.20;;;;;;;;5097376;28;8817;-73
2022/01/28 09:50:14;;;;;;;;;142.60;136.00;;;;;;;;5096915;28;8920;-74
2022/01/28 09:52:39;;;;;;;;;142.20;139.40;;;;;;;;5097812;28;8790;-73
2022/01/28 09:55:05;;;;;;;;;146.00;135.33;;;;;;;;5095277;28;8813;-74
2022/01/28 09:57:31;;;;;;;;;117.40;104.80;;;;;;;;5096644;28;8842;-73
2022/01/28 09:59:57;;;;;;;;;140.00;131.60;;;;;;;;5097118;28;8808;-73
2022/01/28 10:02:42;;;;;;;;;129.60;125.40;;;;;;;;5096864;28;8908;-74
2022/01/28 10:05:18;;;;;;;;;129.20;123.20;;;;;;;;5093466;28;9358;-73
2022/01/28 10:08:02;;;;;;;;;128.80;125.40;;;;;;;;5097012;28;8801;-73
2022/01/28 10:10:40;;;;;;;;;128.20;122.60;;;;;;;;5096977;28;8876;-72
2022/01/28 10:13:10;;;;;;;;;162.33;156.83;;;;;;;;5096579;28;9810;-72
2022/01/28 10:15:36;;;;;;;;;117.40;111.20;;;;;;;;5096492;28;8786;-71
2022/01/28 10:18:01;;;;;;;;;125.83;119.67;;;;;;;;5096392;28;8863;-72
2022/01/28 10:20:27;;;;;;;;;105.60;96.80;;;;;;;;5083967;28;8823;-71
2022/01/28 10:22:57;;;;;;;;;243.17;230.00;;;;;;;;5096598;28;8818;-71
2022/01/28 10:25:33;;;;;;;;;191.40;183.20;;;;;;;;5095307;28;10901;-72
2022/01/28 10:28:06;;;;;;;;;240.86;233.57;;;;;;;;5094709;28;11517;-72
2022/01/28 10:30:35;;;;;;;;;250.33;246.33;;;;;;;;5096351;28;9728;-72
2022/01/28 10:33:17;;;;;;;;;249.50;240.17;;;;;;;;5095261;28;8808;-71
2022/01/28 10:35:48;;;;;;;;;175.80;174.60;;;;;;;;5092700;28;8924;-72
2022/01/28 10:38:26;;;;;;;;;222.67;221.33;;;;;;;;5096519;28;8890;-71
2022/01/28 10:41:10;;;;;;;;;181.40;175.20;;;;;;;;5095958;28;8794;-72
2022/01/28 10:43:41;;;;;;;;;215.17;213.17;;;;;;;;5093881;28;9486;-71
2022/01/28 10:46:07;;;;;;;;;106.20;104.80;;;;;;;;5095171;28;8820;-72
2022/01/28 10:48:33;;;;;;;;;126.80;118.40;;;;;;;;5094951;28;8833;-72
2022/01/28 10:50:59;;;;;;;;;103.80;99.60;;;;;;;;5094970;28;8797;-72
2022/01/28 10:53:27;;;;;;;;;91.20;78.20;;;;;;;;5096861;28;8852;-72
2022/01/28 10:55:54;;;;;;;;;85.00;67.20;;;;;;;;5095171;28;8790;-72
2022/01/28 10:58:24;;;;;;;;;78.80;62.80;;;;;;;;5094742;28;8821;-71
2022/01/28 11:00:50;;;;;;;;;67.33;54.00;;;;;;;;5097038;28;9591;-72
2022/01/28 11:03:17;;;;;;;;;87.25;73.00;;;;;;;;5096663;28;11583;-71
2022/01/28 11:05:45;;;;;;;;;36.80;33.60;;;;;;;;5091576;28;8786;-72
2022/01/28 11:08:12;;;;;;;;;82.00;69.00;;;;;;;;5097175;28;8814;-71
2022/01/28 11:10:37;;;;;;;;;94.20;90.00;;;;;;;;5094349;28;8867;-72
2022/01/28 11:13:03;;;;;;;;;70.00;56.00;;;;;;;;5096235;28;8814;-72
2022/01/28 11:15:29;;;;;;;;;80.40;63.20;;;;;;;;5096908;28;8820;-72
2022/01/28 11:17:54;;;;;;;;;67.80;54.00;;;;;;;;5093700;28;8802;-72
2022/01/28 11:20:25;;;;;;;;;127.20;125.40;;;;;;;;5094710;28;8896;-72
2022/01/28 11:22:56;;;;;;;;;151.50;148.75;;;;;;;;5093395;28;8940;-72
2022/01/28 11:25:36;;;;;;;;;149.20;144.00;;;;;;;;5096236;28;8782;-72
2022/01/28 11:28:05;;;;;;;;;210.33;208.83;;;;;;;;5092526;28;8798;-72
2022/01/28 11:30:31;;;;;;;;;132.75;130.50;;;;;;;;5096745;28;8793;-72
2022/01/28 11:33:00;;;;;;;;;110.00;110.00;;;;;;;;5093781;28;10221;-72
2022/01/28 11:35:27;;;;;;;;;226.67;224.17;;;;;;;;5094611;28;9736;-72
2022/01/28 11:37:54;;;;;;;;;154.20;150.60;;;;;;;;5095178;28;8794;-72
2022/01/28 11:40:19;;;;;;;;;243.50;233.17;;;;;;;;5094192;28;8847;-72
2022/01/28 11:42:45;;;;;;;;;192.60;189.40;;;;;;;;5090254;28;9604;-72
2022/01/28 11:45:11;;;;;;;;;160.60;158.60;;;;;;;;5093188;28;8860;-71
2022/01/28 11:47:41;;;;;;;;;150.80;148.20;;;;;;;;5095650;28;11638;-72
2022/01/28 11:50:16;;;;;;;;;196.67;190.00;;;;;;;;5095516;28;9633;-71
2022/01/28 11:52:46;;;;;;;;;188.50;183.00;;;;;;;;5095927;28;8781;-71
2022/01/28 11:55:31;;;;;;;;;178.00;172.60;;;;;;;;5094998;28;8793;-71
2022/01/28 11:57:59;;;;;;;;;140.20;137.40;;;;;;;;5089820;28;8824;-71
2022/01/28 12:00:27;;;;;;;;;163.17;158.50;;;;;;;;5094428;28;9026;-72
2022/01/28 12:02:53;;;;;;;;;143.17;140.50;;;;;;;;5095434;28;9680;-72
2022/01/28 12:05:30;;;;;;;;;153.25;151.00;;;;;;;;5095567;28;8806;-72
2022/01/28 12:07:59;;;;;;;;;160.67;159.50;;;;;;;;5094407;28;8941;-73
2022/01/28 12:10:25;;;;;;;;;144.80;140.40;;;;;;;;5095251;28;8862;-72
2022/01/28 12:12:59;;;;;;;;;127.00;125.75;;;;;;;;5095440;28;8798;-73
2022/01/28 12:15:27;;;;;;;;;153.60;151.00;;;;;;;;5095770;28;8786;-72
2022/01/28 12:18:04;;;;;;;;;135.20;131.60;;;;;;;;5094672;28;11631;-72
2022/01/28 12:20:44;;;;;;;;;198.20;195.60;;;;;;;;5095405;28;8847;-72
2022/01/28 12:23:10;;;;;;;;;175.67;172.50;;;;;;;;5093077;28;11531;-72
2022/01/28 12:25:35;;;;;;;;;124.00;118.25;;;;;;;;5086184;28;9688;-72
2022/01/28 12:28:17;;;;;;;;;125.33;124.67;;;;;;;;5092797;28;9549;-72
2022/01/28 12:30:44;;;;;;;;;120.83;118.67;;;;;;;;5094644;28;8912;-72
2022/01/28 12:33:09;;;;;;;;;132.75;132.50;;;;;;;;5092176;28;8797;-72
2022/01/28 12:35:36;;;;;;;;;85.80;77.60;;;;;;;;5094369;28;8833;-72
2022/01/28 12:38:03;;;;;;;;;77.80;66.40;;;;;;;;5096941;28;8786;-72
2022/01/28 12:40:35;;;;;;;;;79.33;66.83;;;;;;;;5095261;28;8735;-72
2022/01/28 12:43:01;;;;;;;;;77.20;65.40;;;;;;;;5094973;28;9652;-71
2022/01/28 12:45:26;;;;;;;;;85.20;75.20;;;;;;;;5093142;28;8805;-72
2022/01/28 12:47:51;;;;;;;;;47.75;40.25;;;;;;;;5090099;28;8849;-72
2022/01/28 12:50:19;;;;;;;;;72.00;58.25;;;;;;;;5091541;28;8942;-72
2022/01/28 12:52:45;;;;;;;;;67.20;55.80;;;;;;;;5094927;28;8805;-72
2022/01/28 12:55:12;;;;;;;;;77.60;64.80;;;;;;;;5094848;28;8786;-72
2022/01/28 12:57:41;;;;;;;;;57.20;47.20;;;;;;;;5084007;28;8782;-72
2022/01/28 13:00:07;;;;;;;;;79.83;67.67;;;;;;;;5091598;28;9059;-72
2022/01/28 13:02:33;;;;;;;;;55.00;42.60;;;;;;;;5094980;28;8905;-72
2022/01/28 13:09:55;;;;;;;;;93.00;85.80;;;;;;;;5094575;28;11542;-72
2022/01/28 13:12:22;;;;;;;;;70.60;56.20;;;;;;;;5095203;28;8790;-74
2022/01/28 13:14:47;;;;;;;;;79.50;65.50;;;;;;;;5094682;28;9736;-72
2022/01/28 13:17:17;;;;;;;;;69.00;57.00;;;;;;;;5085487;28;8794;-72
2022/01/28 13:19:43;;;;;;;;;69.60;56.60;;;;;;;;5091999;28;8794;-72
2022/01/28 13:22:08;;;;;;;;;79.50;64.50;;;;;;;;5089224;28;8840;-72
2022/01/28 13:24:33;;;;;;;;;71.67;59.00;;;;;;;;5091200;28;8813;-72
2022/01/28 13:27:00;;;;;;;;;75.50;59.75;;;;;;;;5092663;28;8870;-72
2022/01/28 13:29:37;;;;;;;;;82.50;68.00;;;;;;;;5094849;28;8924;-72
2022/01/28 13:32:05;;;;;;;;;86.25;75.25;;;;;;;;5093219;28;8798;-72
2022/01/28 13:34:42;;;;;;;;;86.00;77.40;;;;;;;;5094501;28;8750;-72
2022/01/28 13:37:08;;;;;;;;;72.75;59.00;;;;;;;;5094973;28;8742;-72
2022/01/28 13:39:41;;;;;;;;;80.00;64.80;;;;;;;;5094819;28;8873;-72
2022/01/28 13:42:13;;;;;;;;;80.00;62.80;;;;;;;;5094322;28;8841;-72
2022/01/28 13:44:42;;;;;;;;;76.60;62.20;;;;;;;;5094709;28;8775;-72
2022/01/28 13:47:09;;;;;;;;;80.00;66.25;;;;;;;;5089487;28;8828;-73
2022/01/28 13:49:35;;;;;;;;;88.80;81.00;;;;;;;;5091878;28;9011;-72
2022/01/28 13:52:12;;;;;;;;;76.00;62.20;;;;;;;;5092196;28;8837;-72
2022/01/28 13:54:37;;;;;;;;;79.75;66.25;;;;;;;;5092998;28;8940;-72
2022/01/28 13:57:04;;;;;;;;;81.75;67.00;;;;;;;;5094482;28;9569;-72
2022/01/28 13:59:31;;;;;;;;;73.60;58.80;;;;;;;;5093335;28;9766;-72
2022/01/28 14:01:59;;;;;;;;;75.20;61.60;;;;;;;;5094523;28;8824;-71
2022/01/28 14:04:35;;;;;;;;;75.50;61.00;;;;;;;;5090069;28;8837;-72
2022/01/28 14:07:23;;;;;;;;;79.25;65.75;;;;;;;;5081832;28;8920;-72
2022/01/28 14:10:00;;;;;;;;;78.75;61.50;;;;;;;;5089092;28;8793;-72
2022/01/28 14:12:34;;;;;;;;;103.00;97.20;;;;;;;;5097411;28;11631;-73
2022/01/28 14:15:09;;;;;;;;;86.60;74.60;;;;;;;;5084716;28;8790;-73
2022/01/28 14:17:34;;;;;;;;;47.00;39.75;;;;;;;;5097660;28;8890;-72
2022/01/28 14:20:00;;;;;;;;;35.75;30.00;;;;;;;;5096850;28;8951;-72
2022/01/28 14:22:25;;;;;;;;;50.00;42.00;;;;;;;;5097532;28;8802;-72
2022/01/28 14:24:51;;;;;;;;;27.50;24.50;;;;;;;;5097335;28;8801;-72
2022/01/28 14:29:54;;;;;;;;;57.40;47.80;;;;;;;;5097546;28;8798;-72
2022/01/28 14:32:21;;;;;;;;;75.40;61.40;;;;;;;;5097317;28;9716;-72
2022/01/28 14:34:48;;;;;;;;;87.80;80.00;;;;;;;;5083622;28;8808;-72
2022/01/28 14:37:14;;;;;;;;;88.00;75.40;;;;;;;;5097495;28;8786;-72
2022/01/28 14:39:40;;;;;;;;;83.33;71.67;;;;;;;;5095448;28;8869;-72
2022/01/28 14:42:07;;;;;;;;;36.80;30.40;;;;;;;;5097187;28;8860;-72
2022/01/28 14:44:39;;;;;;;;;85.50;74.00;;;;;;;;5088907;28;8786;-72
2022/01/28 14:47:05;;;;;;;;;127.80;124.20;;;;;;;;5094300;28;8798;-72
2022/01/28 14:49:30;;;;;;;;;93.60;85.20;;;;;;;;5095181;28;11707;-73
2022/01/28 14:52:00;;;;;;;;;103.00;100.25;;;;;;;;5097048;28;8798;-72
2022/01/28 14:54:28;;;;;;;;;101.40;98.40;;;;;;;;5096874;28;8786;-73
2022/01/28 14:56:54;;;;;;;;;121.60;117.40;;;;;;;;5097069;28;8821;-72
2022/01/28 14:59:20;;;;;;;;;95.80;90.80;;;;;;;;5096812;28;8786;-72
2022/01/28 15:01:45;;;;;;;;;98.00;96.00;;;;;;;;5097147;28;9074;-72
2022/01/28 15:04:10;;;;;;;;;93.50;88.75;;;;;;;;5097245;28;8867;-72
2022/01/28 15:06:37;;;;;;;;;121.67;119.00;;;;;;;;5096960;28;8853;-72
2022/01/28 15:09:03;;;;;;;;;98.00;95.00;;;;;;;;5096658;28;8886;-72
2022/01/28 15:11:43;;;;;;;;;139.00;135.75;;;;;;;;5096907;28;8821;-72
2022/01/28 15:14:08;;;;;;;;;109.00;106.80;;;;;;;;5083052;28;8810;-72
2022/01/28 15:16:34;;;;;;;;;116.60;112.40;;;;;;;;5097016;28;8995;-72
2022/01/28 15:18:59;;;;;;;;;144.00;141.20;;;;;;;;5095494;28;9696;-72
2022/01/28 15:21:24;;;;;;;;;121.67;119.00;;;;;;;;5089159;28;8889;-73
2022/01/28 15:23:50;;;;;;;;;154.25;151.50;;;;;;;;5096481;28;8852;-72
2022/01/28 15:26:16;;;;;;;;;109.00;106.20;;;;;;;;5096727;28;11636;-71
2022/01/28 15:28:59;;;;;;;;;144.00;142.75;;;;;;;;5096226;28;8879;-72
2022/01/28 15:34:18;;;;;;;;;108.80;105.20;;;;;;;;5096400;28;8813;-72
2022/01/28 15:36:43;;;;;;;;;130.60;126.60;;;;;;;;5094973;28;8750;-72
2022/01/28 15:39:09;;;;;;;;;104.67;100.33;;;;;;;;5096256;28;8931;-72
2022/01/28 15:41:34;;;;;;;;;120.00;115.50;;;;;;;;5096642;28;8818;-72
2022/01/28 15:43:59;;;;;;;;;101.00;97.67;;;;;;;;5096132;28;11253;-72
2022/01/28 15:46:25;;;;;;;;;118.25;117.50;;;;;;;;5096490;28;8825;-72